createdAt,value
2022-09-21T00:01:00.928Z,99042.64
2022-09-21T00:02:03.538Z,99039.17
2022-09-21T00:03:06.463Z,99038.98
2022-09-21T00:04:09.125Z,99038.70
2022-09-21T00:05:11.703Z,99044.62
2022-09-21T00:06:14.744Z,99040.17
2022-09-21T00:07:17.376Z,99050.73
2022-09-21T00:08:19.816Z,99041.66
2022-09-21T00:09:22.251Z,99053.72
2022-09-21T00:10:26.057Z,99042.84
2022-09-21T00:11:28.493Z,99045.15
2022-09-21T00:12:30.969Z,99046.63
2022-09-21T00:13:33.425Z,99050.09
2022-09-21T00:14:35.851Z,99042.86
2022-09-21T00:15:38.368Z,99046.33
2022-09-21T00:16:41.771Z,99049.77
2022-09-21T00:17:44.253Z,99047.13
2022-09-21T00:18:46.693Z,99040.04
2022-09-21T00:19:49.164Z,99040.72
2022-09-21T00:20:51.860Z,99041.70
2022-09-21T00:21:54.298Z,99037.58
2022-09-21T00:22:56.839Z,99037.73
2022-09-21T00:23:59.316Z,99046.63
2022-09-21T00:25:01.772Z,99048.62
2022-09-21T00:26:04.848Z,99041.68
2022-09-21T00:27:07.311Z,99049.59
2022-09-21T00:28:09.754Z,99043.34
2022-09-21T00:29:12.301Z,99042.66
2022-09-21T00:30:15.562Z,99031.30
2022-09-21T00:31:18.142Z,99025.20
2022-09-21T00:32:21.208Z,99029.97
2022-09-21T00:33:23.655Z,99032.43
2022-09-21T00:34:26.104Z,99036.08
2022-09-21T00:35:28.582Z,99038.54
2022-09-21T00:36:31.893Z,99035.91
2022-09-21T00:37:34.348Z,99031.45
2022-09-21T00:38:36.851Z,99037.70
2022-09-21T00:39:39.351Z,99034.92
2022-09-21T00:40:42.220Z,99033.27
2022-09-21T00:41:44.702Z,99036.08
2022-09-21T00:42:47.288Z,99032.43
2022-09-21T00:43:49.791Z,99031.45
2022-09-21T00:44:52.213Z,99043.67
2022-09-21T00:45:54.684Z,99037.56
2022-09-21T00:46:57.668Z,99040.20
2022-09-21T00:48:00.132Z,99042.98
2022-09-21T00:49:02.585Z,99037.06
2022-09-21T00:50:05.336Z,99043.17
2022-09-21T00:51:07.780Z,99041.66
2022-09-21T00:52:10.246Z,99047.95
2022-09-21T00:53:12.995Z,99047.11
2022-09-21T00:54:15.475Z,99047.77
2022-09-21T00:55:17.927Z,99039.02
2022-09-21T00:56:22.183Z,99043.17
2022-09-21T00:57:24.658Z,99035.07
2022-09-21T00:58:27.100Z,99037.91
2022-09-21T00:59:30.427Z,99046.63
2022-09-21T01:00:33.528Z,99038.41
2022-09-21T01:01:35.965Z,99040.87
2022-09-21T01:02:38.981Z,99045.82
2022-09-21T01:03:41.420Z,99045.52
2022-09-21T01:04:43.861Z,99045.19
2022-09-21T01:05:46.301Z,99044.03
2022-09-21T01:06:48.991Z,99034.63
2022-09-21T01:07:51.459Z,99032.98
2022-09-21T01:08:53.905Z,99037.78
2022-09-21T01:09:56.654Z,99038.09
2022-09-21T01:10:59.603Z,99035.30
2022-09-21T01:12:02.043Z,99045.38
2022-09-21T01:13:04.566Z,99045.88
2022-09-21T01:14:07.993Z,99040.11
2022-09-21T01:15:10.691Z,99039.09
2022-09-21T01:16:14.923Z,99039.44
2022-09-21T01:17:17.530Z,99041.09
2022-09-21T01:18:20.030Z,99033.17
2022-09-21T01:19:22.478Z,99036.45
2022-09-21T01:20:25.828Z,99032.83
2022-09-21T01:21:28.284Z,99029.36
2022-09-21T01:22:30.713Z,99031.17
2022-09-21T01:23:33.207Z,99026.91
2022-09-21T01:24:35.829Z,99031.17
2022-09-21T01:25:38.583Z,99030.87
2022-09-21T01:26:41.530Z,99033.32
2022-09-21T01:27:44.022Z,99033.32
2022-09-21T01:28:46.494Z,99043.73
2022-09-21T01:29:48.949Z,99036.80
2022-09-21T01:30:51.898Z,99032.00
2022-09-21T01:31:54.379Z,99036.15
2022-09-21T01:32:56.886Z,99043.55
2022-09-21T01:33:59.604Z,99042.08
2022-09-21T01:35:02.270Z,99042.75
2022-09-21T01:36:04.929Z,99048.03
2022-09-21T01:37:07.374Z,99041.09
2022-09-21T01:38:09.813Z,99044.70
2022-09-21T01:39:12.285Z,99035.95
2022-09-21T01:40:15.933Z,99042.55
2022-09-21T01:41:18.462Z,99043.88
2022-09-21T01:42:20.900Z,99042.75
2022-09-21T01:43:23.554Z,99045.88
2022-09-21T01:44:26.027Z,99043.38
2022-09-21T01:45:28.644Z,99045.38
2022-09-21T01:46:31.629Z,99038.09
2022-09-21T01:47:34.116Z,99036.78
2022-09-21T01:48:36.551Z,99036.62
2022-09-21T01:49:39.032Z,99036.96
2022-09-21T01:50:42.316Z,99044.05
2022-09-21T01:51:44.793Z,99038.09
2022-09-21T01:52:47.227Z,99036.78
2022-09-21T01:53:49.684Z,99038.77
2022-09-21T01:54:52.156Z,99037.61
2022-09-21T01:55:54.603Z,99028.55
2022-09-21T01:56:57.346Z,99031.83
2022-09-21T01:57:59.993Z,99039.11
2022-09-21T01:59:02.437Z,99036.95
2022-09-21T02:00:05.436Z,99023.75
2022-09-21T02:01:07.967Z,99032.83
2022-09-21T02:02:11.157Z,99031.17
2022-09-21T02:03:14.012Z,99028.19
2022-09-21T02:04:16.465Z,99025.05
2022-09-21T02:05:19.147Z,99026.23
2022-09-21T02:06:23.715Z,99032.65
2022-09-21T02:07:26.193Z,99030.67
2022-09-21T02:08:28.635Z,99035.63
2022-09-21T02:09:31.077Z,99036.12
2022-09-21T02:10:33.971Z,99031.34
2022-09-21T02:11:36.414Z,99028.55
2022-09-21T02:12:38.876Z,99027.53
2022-09-21T02:13:41.320Z,99022.59
2022-09-21T02:14:43.779Z,99021.27
2022-09-21T02:15:46.372Z,99026.22
2022-09-21T02:16:48.999Z,99022.93
2022-09-21T02:17:51.447Z,99029.20
2022-09-21T02:18:53.996Z,99026.07
2022-09-21T02:19:56.436Z,99032.00
2022-09-21T02:20:59.409Z,99027.73
2022-09-21T02:22:02.085Z,99041.43
2022-09-21T02:23:04.748Z,99040.91
2022-09-21T02:24:07.193Z,99042.41
2022-09-21T02:25:09.637Z,99046.38
2022-09-21T02:26:12.729Z,99041.44
2022-09-21T02:27:15.166Z,99041.44
2022-09-21T02:28:17.815Z,99040.11
2022-09-21T02:29:20.484Z,99037.13
2022-09-21T02:30:23.440Z,99043.73
2022-09-21T02:31:26.168Z,99043.73
2022-09-21T02:32:28.761Z,99037.62
2022-09-21T02:33:31.209Z,99033.32
2022-09-21T02:34:33.644Z,99022.42
2022-09-21T02:35:36.087Z,99024.08
2022-09-21T02:36:38.849Z,99026.08
2022-09-21T02:37:41.319Z,99025.73
2022-09-21T02:38:43.867Z,99018.45
2022-09-21T02:39:46.307Z,99026.56
2022-09-21T02:40:49.148Z,99028.53
2022-09-21T02:41:51.831Z,99031.66
2022-09-21T02:42:54.515Z,99031.85
2022-09-21T02:43:56.998Z,99038.45
2022-09-21T02:44:59.533Z,99035.81
2022-09-21T02:46:02.169Z,99035.47
2022-09-21T02:47:04.629Z,99032.34
2022-09-21T02:48:07.106Z,99027.55
2022-09-21T02:49:09.557Z,99030.34
2022-09-21T02:50:13.211Z,99029.85
2022-09-21T02:51:15.654Z,99030.68
2022-09-21T02:52:18.231Z,99036.80
2022-09-21T02:53:20.867Z,99031.85
2022-09-21T02:54:23.343Z,99032.67
2022-09-21T02:55:25.784Z,99036.12
2022-09-21T02:56:29.864Z,99035.47
2022-09-21T02:57:32.328Z,99031.02
2022-09-21T02:58:34.864Z,99029.20
2022-09-21T02:59:37.501Z,99028.53
2022-09-21T03:00:40.549Z,99026.08
2022-09-21T03:01:43.164Z,99032.16
2022-09-21T03:02:45.762Z,99020.95
2022-09-21T03:03:48.238Z,99021.09
2022-09-21T03:04:50.726Z,99018.15
2022-09-21T03:05:53.164Z,99015.51
2022-09-21T03:06:55.903Z,99013.36
2022-09-21T03:07:58.407Z,99014.00
2022-09-21T03:09:00.928Z,99012.19
2022-09-21T03:10:03.566Z,99008.72
2022-09-21T03:11:05.999Z,99006.41
2022-09-21T03:12:08.636Z,98997.66
2022-09-21T03:13:11.275Z,99003.28
2022-09-21T03:14:13.716Z,99009.39
2022-09-21T03:15:16.154Z,99003.13
2022-09-21T03:16:19.357Z,99008.41
2022-09-21T03:17:22.178Z,99005.09
2022-09-21T03:18:24.790Z,99003.13
2022-09-21T03:19:27.236Z,99004.60
2022-09-21T03:20:30.596Z,99006.11
2022-09-21T03:21:33.235Z,99011.55
2022-09-21T03:22:35.716Z,99018.30
2022-09-21T03:23:38.228Z,99023.77
2022-09-21T03:24:40.663Z,99030.53
2022-09-21T03:25:43.100Z,99027.70
2022-09-21T03:26:45.647Z,99018.15
2022-09-21T03:27:48.403Z,99022.45
2022-09-21T03:28:50.932Z,99022.74
2022-09-21T03:29:53.373Z,99029.87
2022-09-21T03:30:56.061Z,99014.33
2022-09-21T03:31:58.783Z,99018.13
2022-09-21T03:33:01.248Z,99011.70
2022-09-21T03:34:03.718Z,99014.16
2022-09-21T03:35:06.152Z,99013.17
2022-09-21T03:36:09.100Z,99014.01
2022-09-21T03:37:11.532Z,99018.45
2022-09-21T03:38:14.049Z,99014.01
2022-09-21T03:39:16.574Z,99008.39
2022-09-21T03:40:19.476Z,99016.98
2022-09-21T03:41:22.482Z,99010.05
2022-09-21T03:42:25.408Z,99021.44
2022-09-21T03:43:28.046Z,99013.67
2022-09-21T03:44:30.513Z,99016.98
2022-09-21T03:45:33.051Z,99009.22
2022-09-21T03:46:35.853Z,99004.61
2022-09-21T03:47:38.359Z,99014.64
2022-09-21T03:48:40.813Z,99008.72
2022-09-21T03:49:43.482Z,99007.73
2022-09-21T03:50:46.130Z,99009.36
2022-09-21T03:51:48.634Z,99004.27
2022-09-21T03:52:51.094Z,99007.39
2022-09-21T03:53:53.536Z,99006.54
2022-09-21T03:54:56.233Z,99015.14
2022-09-21T03:55:58.666Z,99012.50
2022-09-21T03:57:01.218Z,99006.24
2022-09-21T03:58:03.651Z,99013.15
2022-09-21T03:59:08.606Z,99002.77
2022-09-21T04:00:11.458Z,99006.89
2022-09-21T04:01:14.463Z,99003.09
2022-09-21T04:02:17.782Z,99011.36
2022-09-21T04:03:20.325Z,99011.84
2022-09-21T04:04:22.769Z,99011.52
2022-09-21T04:05:25.270Z,99016.46
2022-09-21T04:06:28.031Z,99012.02
2022-09-21T04:07:30.466Z,99003.11
2022-09-21T04:08:32.922Z,99010.70
2022-09-21T04:09:35.426Z,99013.83
2022-09-21T04:10:38.088Z,99012.70
2022-09-21T04:11:40.530Z,99008.89
2022-09-21T04:12:42.997Z,99005.27
2022-09-21T04:13:45.464Z,99013.20
2022-09-21T04:14:47.925Z,99008.74
2022-09-21T04:15:50.411Z,99009.73
2022-09-21T04:16:53.279Z,99014.52
2022-09-21T04:17:55.709Z,99001.13
2022-09-21T04:18:58.147Z,99009.88
2022-09-21T04:20:00.619Z,99015.02
2022-09-21T04:21:03.399Z,99014.67
2022-09-21T04:22:06.556Z,99010.37
2022-09-21T04:23:09.003Z,99016.33
2022-09-21T04:24:13.275Z,99020.11
2022-09-21T04:25:17.555Z,99023.25
2022-09-21T04:26:21.865Z,99026.72
2022-09-21T04:27:26.111Z,99016.16
2022-09-21T04:28:30.371Z,99025.06
2022-09-21T04:29:34.623Z,99016.48
2022-09-21T04:30:38.871Z,99020.30
2022-09-21T04:31:41.335Z,99027.89
2022-09-21T04:32:45.595Z,99026.56
2022-09-21T04:33:49.845Z,99027.88
2022-09-21T04:34:54.114Z,99020.94
2022-09-21T04:35:58.370Z,99028.52
2022-09-21T04:37:02.768Z,99027.49
2022-09-21T04:38:06.886Z,99026.34
2022-09-21T04:39:11.140Z,99026.48
2022-09-21T04:40:15.453Z,99025.80
2022-09-21T04:41:18.898Z,99034.77
2022-09-21T04:42:21.877Z,99032.92
2022-09-21T04:43:24.512Z,99023.16
2022-09-21T04:44:28.747Z,99034.41
2022-09-21T04:45:31.185Z,99035.05
2022-09-21T04:46:34.137Z,99030.21
2022-09-21T04:47:38.977Z,99032.72
2022-09-21T04:48:41.512Z,99031.87
2022-09-21T04:49:43.954Z,99035.63
2022-09-21T04:50:46.670Z,99035.95
2022-09-21T04:51:49.113Z,99034.94
2022-09-21T04:52:51.601Z,99033.75
2022-09-21T04:53:54.045Z,99028.46
2022-09-21T04:54:56.483Z,99028.78
2022-09-21T04:55:58.932Z,99032.28
2022-09-21T04:57:01.672Z,99030.44
2022-09-21T04:58:04.159Z,99027.28
2022-09-21T04:59:06.774Z,99029.92
2022-09-21T05:00:10.312Z,99029.41
2022-09-21T05:01:12.832Z,99022.81
2022-09-21T05:02:15.989Z,99026.96
2022-09-21T05:03:18.491Z,99030.12
2022-09-21T05:04:21.178Z,99023.30
2022-09-21T05:05:23.691Z,99026.77
2022-09-21T05:06:26.129Z,99025.94
2022-09-21T05:07:28.570Z,99019.66
2022-09-21T05:08:31.057Z,99019.14
2022-09-21T05:09:33.502Z,99018.47
2022-09-21T05:10:36.050Z,99016.19
2022-09-21T05:11:38.500Z,99019.18
2022-09-21T05:12:41.302Z,99023.64
2022-09-21T05:13:44.259Z,99024.83
2022-09-21T05:14:46.700Z,99030.44
2022-09-21T05:15:49.168Z,99028.30
2022-09-21T05:16:51.790Z,99029.64
2022-09-21T05:17:54.228Z,99033.75
2022-09-21T05:18:56.718Z,99031.07
2022-09-21T05:19:59.154Z,99037.20
2022-09-21T05:21:01.817Z,99044.43
2022-09-21T05:22:04.447Z,99043.13
2022-09-21T05:23:06.894Z,99045.61
2022-09-21T05:24:09.562Z,99046.28
2022-09-21T05:25:12.003Z,99046.60
2022-09-21T05:26:15.169Z,99050.42
2022-09-21T05:27:17.680Z,99049.47
2022-09-21T05:28:20.179Z,99048.48
2022-09-21T05:29:23.014Z,99052.62
2022-09-21T05:30:25.602Z,99046.16
2022-09-21T05:31:28.290Z,99051.92
2022-09-21T05:32:30.816Z,99050.94
2022-09-21T05:33:33.259Z,99051.41
2022-09-21T05:34:36.875Z,99052.56
2022-09-21T05:35:39.561Z,99051.61
2022-09-21T05:36:42.109Z,99047.63
2022-09-21T05:37:44.572Z,99051.00
2022-09-21T05:38:47.032Z,99052.34
2022-09-21T05:39:49.518Z,99051.83
2022-09-21T05:40:52.279Z,99054.44
2022-09-21T05:41:54.715Z,99052.47
2022-09-21T05:42:57.156Z,99053.97
2022-09-21T05:43:59.955Z,99061.58
2022-09-21T05:45:02.429Z,99056.34
2022-09-21T05:46:05.004Z,99063.11
2022-09-21T05:47:07.549Z,99059.12
2022-09-21T05:48:09.994Z,99057.44
2022-09-21T05:49:12.449Z,99063.37
2022-09-21T05:50:15.026Z,99056.11
2022-09-21T05:51:17.465Z,99061.39
2022-09-21T05:52:19.918Z,99069.17
2022-09-21T05:53:22.397Z,99066.84
2022-09-21T05:54:24.984Z,99064.36
2022-09-21T05:55:27.472Z,99061.71
2022-09-21T05:56:30.111Z,99064.70
2022-09-21T05:57:32.561Z,99063.87
2022-09-21T05:58:35.005Z,99062.06
2022-09-21T05:59:37.452Z,99066.69
2022-09-21T06:00:40.221Z,99056.39
2022-09-21T06:01:42.732Z,99057.54
2022-09-21T06:02:45.603Z,99060.98
2022-09-21T06:03:48.152Z,99061.30
2022-09-21T06:04:50.799Z,99066.91
2022-09-21T06:05:53.267Z,99067.47
2022-09-21T06:06:55.911Z,99068.09
2022-09-21T06:07:58.352Z,99070.16
2022-09-21T06:09:00.794Z,99069.69
2022-09-21T06:10:03.873Z,99071.85
2022-09-21T06:11:06.390Z,99075.17
2022-09-21T06:12:08.830Z,99079.13
2022-09-21T06:13:11.275Z,99075.80
2022-09-21T06:14:13.718Z,99081.14
2022-09-21T06:15:16.358Z,99077.47
2022-09-21T06:16:19.064Z,99085.72
2022-09-21T06:17:21.578Z,99085.72
2022-09-21T06:18:24.019Z,99082.05
2022-09-21T06:19:26.464Z,99080.94
2022-09-21T06:20:29.019Z,99079.54
2022-09-21T06:21:31.730Z,99077.53
2022-09-21T06:22:34.289Z,99080.50
2022-09-21T06:23:36.848Z,99067.58
2022-09-21T06:24:39.298Z,99063.23
2022-09-21T06:25:41.746Z,99066.88
2022-09-21T06:26:44.445Z,99073.16
2022-09-21T06:27:46.955Z,99077.11
2022-09-21T06:28:49.408Z,99081.06
2022-09-21T06:29:51.845Z,99078.41
2022-09-21T06:30:54.516Z,99086.83
2022-09-21T06:31:56.975Z,99082.68
2022-09-21T06:32:59.788Z,99083.08
2022-09-21T06:34:02.216Z,99085.44
2022-09-21T06:35:04.661Z,99086.11
2022-09-21T06:36:07.209Z,99076.13
2022-09-21T06:37:09.710Z,99082.72
2022-09-21T06:38:12.158Z,99079.72
2022-09-21T06:39:14.925Z,99087.83
2022-09-21T06:40:17.635Z,99091.97
2022-09-21T06:41:21.554Z,99090.66
2022-09-21T06:42:24.224Z,99092.68
2022-09-21T06:43:26.699Z,99091.34
2022-09-21T06:44:29.140Z,99089.01
2022-09-21T06:45:31.617Z,99098.89
2022-09-21T06:46:34.255Z,99087.78
2022-09-21T06:47:36.734Z,99093.79
2022-09-21T06:48:39.199Z,99095.05
2022-09-21T06:49:42.648Z,99093.04
2022-09-21T06:50:45.826Z,99095.52
2022-09-21T06:51:48.265Z,99097.23
2022-09-21T06:52:50.732Z,99096.56
2022-09-21T06:53:53.179Z,99093.91
2022-09-21T06:54:55.631Z,99093.39
2022-09-21T06:55:58.069Z,99098.64
2022-09-21T06:57:00.946Z,99097.91
2022-09-21T06:58:03.554Z,99096.56
2022-09-21T06:59:06.012Z,99096.20
2022-09-21T07:00:08.955Z,99091.81
2022-09-21T07:01:11.525Z,99109.87
2022-09-21T07:02:14.384Z,99103.42
2022-09-21T07:03:17.041Z,99099.08
2022-09-21T07:04:24.430Z,99100.11
2022-09-21T07:05:23.822Z,99104.73
2022-09-21T07:06:26.470Z,99100.94
2022-09-21T07:07:28.910Z,99106.16
2022-09-21T07:10:40.242Z,99100.84
2022-09-21T07:11:42.693Z,99098.56
2022-09-21T07:12:45.478Z,99094.88
2022-09-21T07:13:47.946Z,99101.20
2022-09-21T07:14:50.396Z,99104.53
2022-09-21T07:15:53.483Z,99100.18
2022-09-21T07:16:56.281Z,99104.80
2022-09-21T07:18:06.139Z,99104.27
2022-09-21T07:19:11.157Z,99102.76
2022-09-21T07:20:08.145Z,99095.58
2022-09-21T07:21:11.246Z,99099.89
2022-09-21T07:22:13.730Z,99100.00
2022-09-21T07:23:16.199Z,99104.11
2022-09-21T07:24:18.709Z,99104.77
2022-09-21T07:25:21.142Z,99102.69
2022-09-21T07:26:24.003Z,99108.22
2022-09-21T07:27:26.435Z,99110.44
2022-09-21T07:28:28.931Z,99100.55
2022-09-21T07:29:31.457Z,99107.15
2022-09-21T07:30:33.989Z,99113.38
2022-09-21T07:31:36.479Z,99106.91
2022-09-21T07:32:39.059Z,99108.65
2022-09-21T07:33:41.526Z,99107.73
2022-09-21T07:34:44.009Z,99112.02
2022-09-21T07:35:46.345Z,99119.35
2022-09-21T07:36:49.079Z,99115.04
2022-09-21T07:37:51.519Z,99117.98
2022-09-21T07:38:53.977Z,99117.45
2022-09-21T07:39:56.437Z,99108.19
2022-09-21T07:40:59.217Z,99114.05
2022-09-21T07:42:01.859Z,99096.98
2022-09-21T07:43:04.296Z,99104.56
2022-09-21T07:44:06.884Z,99105.44
2022-09-21T07:45:09.639Z,99112.66
2022-09-21T07:46:13.512Z,99109.81
2022-09-21T07:47:15.952Z,99111.26
2022-09-21T07:48:18.384Z,99101.76
2022-09-21T07:49:20.873Z,99109.64
2022-09-21T07:50:23.739Z,99104.24
2022-09-21T07:51:26.204Z,99103.14
2022-09-21T07:52:28.647Z,99104.02
2022-09-21T07:53:31.082Z,99106.00
2022-09-21T07:54:33.534Z,99106.40
2022-09-21T07:55:36.045Z,99105.95
2022-09-21T07:56:38.577Z,99103.61
2022-09-21T07:57:41.017Z,99117.41
2022-09-21T07:58:43.455Z,99111.08
2022-09-21T07:59:46.000Z,99115.81
2022-09-21T08:00:48.760Z,99118.48
2022-09-21T08:01:51.261Z,99114.95
2022-09-21T08:02:53.706Z,99107.16
2022-09-21T08:03:56.131Z,99112.08
2022-09-21T08:04:58.594Z,99110.41
2022-09-21T08:06:01.054Z,99118.85
2022-09-21T08:07:03.484Z,99113.47
2022-09-21T08:08:05.923Z,99111.84
2022-09-21T08:09:08.382Z,99114.94
2022-09-21T08:10:11.717Z,99119.86
2022-09-21T08:11:14.195Z,99120.94
2022-09-21T08:12:16.892Z,99119.68
2022-09-21T08:13:19.359Z,99119.70
2022-09-21T08:14:26.132Z,99119.28
2022-09-21T08:15:47.643Z,99119.44
2022-09-21T08:16:30.616Z,99120.39
2022-09-21T08:17:33.234Z,99124.06
2022-09-21T08:18:35.673Z,99115.70
2022-09-21T08:19:38.115Z,99116.29
2022-09-21T08:20:40.659Z,99113.05
2022-09-21T08:21:43.175Z,99121.46
2022-09-21T08:22:45.637Z,99115.58
2022-09-21T08:23:48.059Z,99115.86
2022-09-21T08:24:50.493Z,99112.52
2022-09-21T08:25:52.971Z,99123.09
2022-09-21T08:26:55.858Z,99119.73
2022-09-21T08:27:58.694Z,99115.84
2022-09-21T08:29:01.130Z,99109.91
2022-09-21T08:30:03.579Z,99116.44
2022-09-21T08:31:06.063Z,99113.16
2022-09-21T08:32:08.585Z,99114.42
2022-09-21T08:33:11.159Z,99104.63
2022-09-21T08:34:13.602Z,99107.33
2022-09-21T08:35:16.037Z,99108.76
2022-09-21T08:36:18.808Z,99110.02
2022-09-21T08:37:21.295Z,99112.69
2022-09-21T08:38:23.737Z,99109.19
2022-09-21T08:39:26.170Z,99111.84
2022-09-21T08:40:28.851Z,99106.27
2022-09-21T08:41:31.593Z,99108.48
2022-09-21T08:42:34.295Z,99111.16
2022-09-21T08:43:36.780Z,99105.86
2022-09-21T08:44:39.203Z,99116.17
2022-09-21T08:45:41.637Z,99114.34
2022-09-21T08:46:44.339Z,99123.39
2022-09-21T08:47:46.946Z,99121.49
2022-09-21T08:48:49.398Z,99124.35
2022-09-21T08:49:51.839Z,99117.58
2022-09-21T08:50:54.312Z,99114.97
2022-09-21T08:51:56.774Z,99115.18
2022-09-21T08:52:59.745Z,99117.44
2022-09-21T08:54:02.226Z,99113.30
2022-09-21T08:55:04.696Z,99118.03
2022-09-21T08:56:07.634Z,99117.00
2022-09-21T08:57:10.078Z,99117.14
2022-09-21T08:58:12.560Z,99115.68
2022-09-21T08:59:14.996Z,99113.83
2022-09-21T09:00:17.757Z,99117.13
2022-09-21T09:01:20.489Z,99119.15
2022-09-21T09:02:23.085Z,99116.44
2022-09-21T09:03:25.626Z,99116.13
2022-09-21T09:04:28.082Z,99114.75
2022-09-21T09:05:30.537Z,99113.81
2022-09-21T09:06:33.174Z,99115.31
2022-09-21T09:07:35.613Z,99117.22
2022-09-21T09:08:38.094Z,99115.48
2022-09-21T09:09:40.526Z,99112.03
2022-09-21T09:10:43.174Z,99109.53
2022-09-21T09:11:45.648Z,99115.38
2022-09-21T09:12:48.093Z,99106.80
2022-09-21T09:13:50.576Z,99115.59
2022-09-21T09:14:53.048Z,99113.28
2022-09-21T09:15:55.506Z,99112.31
2022-09-21T09:16:58.238Z,99106.58
2022-09-21T09:18:00.686Z,99114.19
2022-09-21T09:19:03.187Z,99116.99
2022-09-21T09:20:06.038Z,99109.84
2022-09-21T09:21:08.494Z,99118.23
2022-09-21T09:22:10.945Z,99107.23
2022-09-21T09:23:13.398Z,99111.44
2022-09-21T09:24:15.871Z,99107.88
2022-09-21T09:25:18.325Z,99106.50
2022-09-21T09:26:21.074Z,99111.86
2022-09-21T09:27:23.535Z,99104.30
2022-09-21T09:28:25.976Z,99107.25
2022-09-21T09:29:28.464Z,99118.91
2022-09-21T09:30:31.122Z,99118.30
2022-09-21T09:31:33.596Z,99121.39
2022-09-21T09:32:36.200Z,99119.92
2022-09-21T09:33:38.651Z,99109.48
2022-09-21T09:34:41.130Z,99115.00
2022-09-21T09:35:43.576Z,99115.42
2022-09-21T09:36:58.446Z,99116.54
2022-09-21T09:37:50.595Z,99112.02
2022-09-21T09:38:53.037Z,99116.31
2022-09-21T09:39:55.594Z,99117.80
2022-09-21T09:40:58.156Z,99117.22
2022-09-21T09:42:00.638Z,99120.12
2022-09-21T09:43:04.843Z,99118.88
2022-09-21T09:44:07.440Z,99122.67
2022-09-21T09:45:09.955Z,99122.41
2022-09-21T09:46:13.663Z,99117.16
2022-09-21T09:47:16.387Z,99116.68
2022-09-21T09:48:18.832Z,99108.63
2022-09-21T09:49:21.309Z,99121.28
2022-09-21T09:50:24.105Z,99116.07
2022-09-21T09:51:26.544Z,99120.49
2022-09-21T09:52:28.994Z,99122.41
2022-09-21T09:53:31.474Z,99121.53
2022-09-21T09:54:34.031Z,99125.52
2022-09-21T09:55:36.533Z,99126.16
2022-09-21T09:56:39.035Z,99119.31
2022-09-21T09:57:41.487Z,99123.73
2022-09-21T09:58:43.940Z,99119.02
2022-09-21T09:59:49.372Z,99118.88
2022-09-21T10:00:51.117Z,99119.22
2022-09-21T10:01:53.605Z,99117.81
2022-09-21T10:02:56.137Z,99115.55
2022-09-21T10:03:58.683Z,99115.38
2022-09-21T10:05:01.599Z,99121.77
2022-09-21T10:06:04.425Z,99121.77
2022-09-21T10:07:06.880Z,99118.23
2022-09-21T10:08:09.354Z,99119.30
2022-09-21T10:09:11.864Z,99118.45
2022-09-21T10:10:14.715Z,99117.19
2022-09-21T10:11:17.221Z,99117.25
2022-09-21T10:12:19.662Z,99122.21
2022-09-21T10:13:22.152Z,99120.09
2022-09-21T10:14:24.624Z,99123.70
2022-09-21T10:15:27.166Z,99120.76
2022-09-21T10:16:29.883Z,99124.09
2022-09-21T10:17:32.402Z,99119.34
2022-09-21T10:18:34.846Z,99121.77
2022-09-21T10:19:37.288Z,99123.66
2022-09-21T10:20:39.935Z,99118.63
2022-09-21T10:21:42.408Z,99121.98
2022-09-21T10:22:44.867Z,99124.08
2022-09-21T10:23:47.322Z,99125.72
2022-09-21T10:24:49.767Z,99126.90
2022-09-21T10:25:52.308Z,99138.16
2022-09-21T10:26:55.061Z,99131.92
2022-09-21T10:27:57.500Z,99132.39
2022-09-21T10:28:59.945Z,99141.39
2022-09-21T10:30:02.722Z,99137.06
2022-09-21T10:31:05.206Z,99137.74
2022-09-21T10:32:12.362Z,99135.67
2022-09-21T10:33:12.134Z,99139.44
2022-09-21T10:34:14.616Z,99133.45
2022-09-21T10:35:17.103Z,99137.86
2022-09-21T10:36:19.660Z,99133.45
2022-09-21T10:37:22.156Z,99134.59
2022-09-21T10:38:24.606Z,99128.46
2022-09-21T10:39:27.100Z,99139.05
2022-09-21T10:40:29.687Z,99141.80
2022-09-21T10:41:32.191Z,99137.19
2022-09-21T10:42:34.810Z,99136.71
2022-09-21T10:43:41.207Z,99135.50
2022-09-21T10:44:41.669Z,99134.72
2022-09-21T10:45:44.189Z,99136.80
2022-09-21T10:46:47.026Z,99133.28
2022-09-21T10:47:49.616Z,99131.92
2022-09-21T10:48:52.059Z,99120.98
2022-09-21T10:49:54.500Z,99133.72
2022-09-21T10:50:57.238Z,99128.70
2022-09-21T10:51:59.677Z,99136.04
2022-09-21T10:53:02.154Z,99128.35
2022-09-21T10:54:04.591Z,99135.88
2022-09-21T10:55:07.039Z,99135.64
2022-09-21T10:56:15.916Z,99137.87
2022-09-21T10:57:14.348Z,99141.03
2022-09-21T10:58:16.851Z,99138.47
2022-09-21T10:59:19.296Z,99137.58
2022-09-21T11:00:22.244Z,99136.20
2022-09-21T11:01:25.023Z,99145.23
2022-09-21T11:02:27.673Z,99147.52
2022-09-21T11:03:30.283Z,99142.97
2022-09-21T11:04:32.756Z,99138.00
2022-09-21T11:05:35.196Z,99144.36
2022-09-21T11:06:37.947Z,99137.34
2022-09-21T11:07:40.389Z,99137.82
2022-09-21T11:08:42.924Z,99141.28
2022-09-21T11:09:45.446Z,99142.94
2022-09-21T11:10:47.986Z,99136.36
2022-09-21T11:11:50.483Z,99135.40
2022-09-21T11:12:52.949Z,99133.14
2022-09-21T11:13:55.510Z,99134.79
2022-09-21T11:14:57.974Z,99129.42
2022-09-21T11:16:00.500Z,99144.78
2022-09-21T11:17:03.122Z,99139.13
2022-09-21T11:18:05.547Z,99141.04
2022-09-21T11:19:08.036Z,99137.82
2022-09-21T11:20:11.465Z,99135.38
2022-09-21T11:21:14.110Z,99135.53
2022-09-21T11:22:16.559Z,99136.68
2022-09-21T11:23:19.002Z,99138.20
2022-09-21T11:24:21.489Z,99133.50
2022-09-21T11:25:24.186Z,99138.05
2022-09-21T11:26:26.836Z,99138.09
2022-09-21T11:27:29.283Z,99135.88
2022-09-21T11:28:31.730Z,99138.30
2022-09-21T11:29:34.201Z,99139.76
2022-09-21T11:30:36.875Z,99147.30
2022-09-21T11:31:39.390Z,99147.08
2022-09-21T11:32:41.877Z,99151.20
2022-09-21T11:33:44.315Z,99146.27
2022-09-21T11:34:46.779Z,99150.59
2022-09-21T11:35:49.217Z,99153.53
2022-09-21T11:36:51.962Z,99150.86
2022-09-21T11:37:54.423Z,99152.94
2022-09-21T11:38:56.854Z,99150.48
2022-09-21T11:39:59.436Z,99147.20
2022-09-21T11:41:02.006Z,99157.87
2022-09-21T11:42:04.447Z,99155.58
2022-09-21T11:43:06.889Z,99153.52
2022-09-21T11:44:11.658Z,99155.55
2022-09-21T11:45:13.766Z,99154.48
2022-09-21T11:46:16.336Z,99156.38
2022-09-21T11:47:18.853Z,99155.32
2022-09-21T11:48:21.293Z,99161.36
2022-09-21T11:49:23.723Z,99156.03
2022-09-21T11:50:30.640Z,99154.32
2022-09-21T11:51:30.777Z,99151.59
2022-09-21T11:52:33.343Z,99153.97
2022-09-21T11:53:35.791Z,99150.47
2022-09-21T11:54:38.222Z,99150.13
2022-09-21T11:55:41.093Z,99145.83
2022-09-21T11:56:43.640Z,99151.19
2022-09-21T11:57:46.091Z,99150.91
2022-09-21T11:58:51.520Z,99155.45
2022-09-21T11:59:52.908Z,99147.80
2022-09-21T12:00:55.567Z,99146.38
2022-09-21T12:01:58.099Z,99157.34
2022-09-21T12:03:00.594Z,99161.56
2022-09-21T12:04:03.054Z,99160.05
2022-09-21T12:05:05.487Z,99166.53
2022-09-21T12:06:08.559Z,99164.52
2022-09-21T12:07:10.997Z,99161.33
2022-09-21T12:08:13.436Z,99160.51
2022-09-21T12:09:15.937Z,99162.67
2022-09-21T12:10:18.570Z,99165.83
2022-09-21T12:11:21.035Z,99160.88
2022-09-21T12:12:23.474Z,99163.46
2022-09-21T12:13:25.915Z,99159.59
2022-09-21T12:14:28.390Z,99165.41
2022-09-21T12:15:30.934Z,99161.45
2022-09-21T12:16:33.492Z,99163.55
2022-09-21T12:17:36.080Z,99171.14
2022-09-21T12:18:40.420Z,99175.11